Zürich Airport

Airport
ICAO code: 
LSZH
IATA Code: 
ZRH
Summary
ICAO Region: 
EUR
Territory: 
Location: 
Kloten, Zürich
Serving: 
Zürich
Elevation: 
1416 ft
Coordinates: 
Aerial View: 
47° 27' 52.999" N, 8° 32' 57.001" E
Metar
Observation
LSZH 190020Z AUTO VRB01KT 9999 BKN019 01/M01 Q1032 NOSIG
Station
Zurich-Kloten
Date/Time
2022-01-19 00:20:00
Wind speed
01 kts
Lowest cloud amount
broken clouds
Temperature
1°C
Dew point
-1°C
Humidity
86%
QNH
1032 hPa
Weather condition
n/a

An airport serving Grenchen, a municipality in the district of Lebern in the canton of Solothurn in Switzerland.

Climatology

Temperate Marine climate/Oceanic climate (Köppen climate classification Cfb).

Runways

Designator Length Width Surface Rops
10/28 2500 60 CON Yes/Yes
14/32 3300 60 CON Yes/Yes
16/34 3700 60 CON Yes/Yes

SKYbrary Partners:

Safety knowledge contributed by: